Time;durP1;ratioP1;P1;durP2;ratioP2;P2;SDS_P1;SDS_P2;PMS_P1;PMS_P2;Temp;Humidity;BMP_temperature;BMP_pressure;BME280_temperature;BME280_humidity;BME280_pressure;Samples;Min_cycle;Max_cycle;Signal;HPM_P1;HPM_P2
2022/12/12 00:01:24;;;;;;;12.35;11.30;;;;;;;;;;5012502;28;20043;-64
2022/12/12 00:03:50;;;;;;;11.65;10.75;;;;;;;;;;5011746;28;20116;-64
2022/12/12 00:06:16;;;;;;;11.93;10.77;;;;;;;;;;5009592;28;20037;-64
2022/12/12 00:08:41;;;;;;;11.73;10.63;;;;;;;;;;5010965;28;20045;-64
2022/12/12 00:11:07;;;;;;;13.75;12.48;;;;;;;;;;5012400;28;20045;-65
2022/12/12 00:13:33;;;;;;;12.75;11.50;;;;;;;;;;5012330;28;20041;-64
2022/12/12 00:15:59;;;;;;;14.55;11.95;;;;;;;;;;5010362;28;20069;-64
2022/12/12 00:18:24;;;;;;;11.80;10.80;;;;;;;;;;5008086;28;20141;-63
2022/12/12 00:20:54;;;;;;;12.55;11.55;;;;;;;;;;5010328;28;20071;-64
2022/12/12 00:23:20;;;;;;;13.15;12.05;;;;;;;;;;5012042;28;20464;-65
2022/12/12 00:25:54;;;;;;;12.65;11.50;;;;;;;;;;5010312;28;20034;-64
2022/12/12 00:28:19;;;;;;;13.85;12.68;;;;;;;;;;5010365;28;20117;-65
2022/12/12 00:30:44;;;;;;;16.10;12.10;;;;;;;;;;5010598;28;20439;-63
2022/12/12 00:33:10;;;;;;;14.73;12.32;;;;;;;;;;5011944;28;20593;-65
2022/12/12 00:35:35;;;;;;;15.10;13.65;;;;;;;;;;5010549;28;20037;-65
2022/12/12 00:38:00;;;;;;;12.90;11.80;;;;;;;;;;5012014;28;20046;-65
2022/12/12 00:40:26;;;;;;;12.75;11.68;;;;;;;;;;5012958;28;20037;-65
2022/12/12 00:42:51;;;;;;;11.32;10.30;;;;;;;;;;5011668;28;20140;-63
2022/12/12 00:45:17;;;;;;;12.93;11.65;;;;;;;;;;5011889;28;20046;-65
2022/12/12 00:47:42;;;;;;;12.57;11.07;;;;;;;;;;5010342;28;20172;-65
2022/12/12 00:50:08;;;;;;;12.68;11.75;;;;;;;;;;5012339;28;20428;-64
2022/12/12 00:52:33;;;;;;;14.38;12.90;;;;;;;;;;5010725;28;20048;-64
2022/12/12 00:54:59;;;;;;;14.13;12.18;;;;;;;;;;5010363;28;20122;-64
2022/12/12 00:57:24;;;;;;;10.80;9.75;;;;;;;;;;5010020;28;20042;-64
2022/12/12 00:59:50;;;;;;;12.55;11.55;;;;;;;;;;5012178;28;20038;-65
2022/12/12 01:02:15;;;;;;;13.30;12.25;;;;;;;;;;5011440;28;20047;-64
2022/12/12 01:04:40;;;;;;;11.73;10.80;;;;;;;;;;5012411;28;20030;-65
2022/12/12 01:07:06;;;;;;;11.48;10.68;;;;;;;;;;5013813;28;20041;-63
2022/12/12 01:09:33;;;;;;;11.93;11.13;;;;;;;;;;5014020;28;20049;-64
2022/12/12 01:11:58;;;;;;;11.55;10.55;;;;;;;;;;5011928;28;20042;-63
2022/12/12 01:14:24;;;;;;;12.88;11.90;;;;;;;;;;5010229;28;20037;-64
2022/12/12 01:16:49;;;;;;;13.18;11.98;;;;;;;;;;5014728;28;20518;-64
2022/12/12 01:19:15;;;;;;;12.43;10.90;;;;;;;;;;5013638;28;20118;-63
2022/12/12 01:21:40;;;;;;;12.68;11.43;;;;;;;;;;5013802;28;20042;-64
2022/12/12 01:24:05;;;;;;;13.20;11.90;;;;;;;;;;5011377;28;20526;-66
2022/12/12 01:26:31;;;;;;;11.68;10.70;;;;;;;;;;5009663;28;20041;-64
2022/12/12 01:28:56;;;;;;;10.23;9.38;;;;;;;;;;5015502;28;20053;-65
2022/12/12 01:31:21;;;;;;;11.93;10.70;;;;;;;;;;5020745;28;20124;-65
2022/12/12 01:33:47;;;;;;;11.77;10.68;;;;;;;;;;5011468;28;20428;-65
2022/12/12 01:36:15;;;;;;;12.48;11.40;;;;;;;;;;5016234;28;20046;-65
2022/12/12 01:38:43;;;;;;;12.38;11.15;;;;;;;;;;5014326;28;20103;-64
2022/12/12 01:41:08;;;;;;;13.60;12.48;;;;;;;;;;5014865;28;20044;-64
2022/12/12 01:43:34;;;;;;;12.90;11.80;;;;;;;;;;5016481;28;20033;-64
2022/12/12 01:46:02;;;;;;;13.13;11.88;;;;;;;;;;5014855;28;20611;-65
2022/12/12 01:48:27;;;;;;;19.98;11.43;;;;;;;;;;5015060;28;20099;-65
2022/12/12 01:50:54;;;;;;;12.48;11.40;;;;;;;;;;5013956;28;20042;-65
2022/12/12 01:53:20;;;;;;;9.73;9.02;;;;;;;;;;5016272;28;20057;-64
2022/12/12 01:55:47;;;;;;;10.30;9.30;;;;;;;;;;5011704;28;20038;-64
2022/12/12 01:58:13;;;;;;;11.82;10.82;;;;;;;;;;5013354;28;20091;-65
2022/12/12 02:00:40;;;;;;;10.80;9.82;;;;;;;;;;5010150;28;20132;-65
2022/12/12 02:03:05;;;;;;;10.77;9.98;;;;;;;;;;5014062;28;20048;-65
2022/12/12 02:05:38;;;;;;;11.32;10.23;;;;;;;;;;5012545;28;20106;-65
2022/12/12 02:08:06;;;;;;;13.20;11.90;;;;;;;;;;5043961;28;20038;-63
2022/12/12 02:10:31;;;;;;;11.27;10.27;;;;;;;;;;5012836;28;20048;-63
2022/12/12 02:13:01;;;;;;;14.38;12.93;;;;;;;;;;5013137;28;20037;-64
2022/12/12 02:15:39;;;;;;;10.88;10.07;;;;;;;;;;5013507;28;20114;-64
2022/12/12 02:18:09;;;;;;;12.35;11.43;;;;;;;;;;5011563;28;20061;-64
2022/12/12 02:20:55;;;;;;;12.10;11.13;;;;;;;;;;5013963;28;20085;-64
2022/12/12 02:23:40;;;;;;;11.60;10.70;;;;;;;;;;5016823;28;20292;-64
2022/12/12 02:26:32;;;;;;;13.63;12.50;;;;;;;;;;5013526;28;20038;-65
2022/12/12 02:29:10;;;;;;;12.18;11.18;;;;;;;;;;5015228;28;20037;-64
2022/12/12 02:31:54;;;;;;;12.68;11.60;;;;;;;;;;5017303;28;20029;-63
2022/12/12 02:34:48;;;;;;;12.98;11.75;;;;;;;;;;5014658;28;20041;-63
2022/12/12 02:37:39;;;;;;;11.57;10.68;;;;;;;;;;5009725;28;20037;-64
2022/12/12 02:40:27;;;;;;;11.20;10.20;;;;;;;;;;5010784;28;20113;-65
2022/12/12 02:42:58;;;;;;;13.65;12.15;;;;;;;;;;5011537;28;20424;-65
2022/12/12 02:45:33;;;;;;;;;;;;;;;;;;5011695;28;20112;-64
2022/12/12 02:48:43;;;;;;;11.73;10.65;;;;;;;;;;5011152;28;19917;-64
2022/12/12 02:51:11;;;;;;;11.90;10.73;;;;;;;;;;5010307;28;20076;-63
2022/12/12 02:53:37;;;;;;;14.88;10.85;;;;;;;;;;5011006;28;20029;-64
2022/12/12 02:56:27;;;;;;;12.63;11.63;;;;;;;;;;5011402;28;20038;-65
2022/12/12 02:58:54;;;;;;;12.68;11.68;;;;;;;;;;5011511;28;20026;-63
2022/12/12 03:01:44;;;;;;;10.88;9.77;;;;;;;;;;5010488;28;20423;-65
2022/12/12 03:10:18;;;;;;;11.27;10.27;;;;;;;;;;5013152;28;19921;-64
2022/12/12 03:13:09;;;;;;;18.40;12.68;;;;;;;;;;5010045;28;20660;-65
2022/12/12 03:16:01;;;;;;;9.90;9.20;;;;;;;;;;5012414;28;20053;-65
2022/12/12 03:18:40;;;;;;;10.73;9.93;;;;;;;;;;5010508;28;20045;-64
2022/12/12 03:21:14;;;;;;;13.02;11.57;;;;;;;;;;5011240;28;20483;-65
2022/12/12 03:23:46;;;;;;;12.95;11.85;;;;;;;;;;5009877;28;20030;-64
2022/12/12 03:26:15;;;;;;;14.05;11.23;;;;;;;;;;5014305;28;20049;-65
2022/12/12 03:28:48;;;;;;;11.68;10.88;;;;;;;;;;5016550;28;20038;-65
2022/12/12 03:31:18;;;;;;;10.95;9.82;;;;;;;;;;5015304;28;20056;-65
2022/12/12 03:34:02;;;;;;;13.47;11.80;;;;;;;;;;5008859;28;20894;-65
2022/12/12 03:36:43;;;;;;;11.45;10.65;;;;;;;;;;5009974;28;20041;-66
2022/12/12 03:39:18;;;;;;;10.82;9.93;;;;;;;;;;5010871;28;20104;-65
2022/12/12 03:41:51;;;;;;;12.05;11.15;;;;;;;;;;5015041;28;20033;-65
2022/12/12 03:44:21;;;;;;;11.93;10.85;;;;;;;;;;5010927;28;20042;-64
2022/12/12 03:46:52;;;;;;;11.73;10.75;;;;;;;;;;5013895;28;20045;-65
2022/12/12 03:49:20;;;;;;;;;;;;;;;;;;5009674;28;20094;-65
2022/12/12 03:52:02;;;;;;;11.52;10.48;;;;;;;;;;5009481;28;19928;-64
2022/12/12 03:54:36;;;;;;;10.65;9.77;;;;;;;;;;5012275;28;20041;-64
2022/12/12 03:57:23;;;;;;;9.82;9.13;;;;;;;;;;5011060;28;20086;-64
2022/12/12 04:00:04;;;;;;;12.13;11.13;;;;;;;;;;5007247;28;20399;-64
2022/12/12 04:02:46;;;;;;;11.30;10.30;;;;;;;;;;5014903;28;20650;-65
2022/12/12 04:05:20;;;;;;;;;;;;;;;;;;5011641;28;20460;-65
2022/12/12 04:08:14;;;;;;;12.43;11.32;;;;;;;;;;5009598;28;20337;-64
2022/12/12 04:13:38;;;;;;;12.35;11.18;;;;;;;;;;5012299;28;20395;-64
2022/12/12 04:16:22;;;;;;;10.23;9.52;;;;;;;;;;5012639;28;20095;-64
2022/12/12 04:23:13;;;;;;;11.50;10.48;;;;;;;;;;5012596;28;20041;-63
2022/12/12 04:24:49;;;;;;;10.80;10.00;;;;;;;;;;5008718;28;20124;-65
2022/12/12 04:27:29;;;;;;;11.60;10.65;;;;;;;;;;5010828;28;20396;-65
2022/12/12 04:30:08;;;;;;;11.90;10.50;;;;;;;;;;5010145;28;20034;-65
2022/12/12 04:32:47;;;;;;;10.93;10.02;;;;;;;;;;5010798;28;20348;-65
2022/12/12 04:35:20;;;;;;;11.07;10.20;;;;;;;;;;5008683;28;20522;-65
2022/12/12 04:38:15;;;;;;;11.98;11.18;;;;;;;;;;5006897;28;20046;-65
2022/12/12 04:40:44;;;;;;;11.38;10.60;;;;;;;;;;5009217;28;20050;-65
2022/12/12 04:43:15;;;;;;;13.23;12.02;;;;;;;;;;5008983;28;20037;-65
2022/12/12 04:45:44;;;;;;;11.57;10.73;;;;;;;;;;5011143;28;20048;-65
2022/12/12 04:48:15;;;;;;;11.15;10.25;;;;;;;;;;5011373;28;20137;-65
2022/12/12 04:50:43;;;;;;;9.48;8.80;;;;;;;;;;5015213;28;20037;-64
2022/12/12 04:53:11;;;;;;;13.75;11.70;;;;;;;;;;5011558;28;20399;-65
2022/12/12 04:55:42;;;;;;;13.25;12.10;;;;;;;;;;5014980;28;20033;-66
2022/12/12 04:58:08;;;;;;;12.00;11.00;;;;;;;;;;5012396;28;20119;-64
2022/12/12 05:00:42;;;;;;;9.40;8.70;;;;;;;;;;5008872;28;20161;-65
2022/12/12 05:03:16;;;;;;;10.75;9.82;;;;;;;;;;5012628;28;20041;-64
2022/12/12 05:05:49;;;;;;;13.63;12.38;;;;;;;;;;5015369;28;20124;-65
2022/12/12 05:08:26;;;;;;;10.57;9.77;;;;;;;;;;5015731;28;20124;-65
2022/12/12 05:10:58;;;;;;;10.45;9.65;;;;;;;;;;5016191;28;20693;-66
2022/12/12 05:13:34;;;;;;;12.45;11.45;;;;;;;;;;5014803;28;20125;-64
2022/12/12 05:16:02;;;;;;;12.13;10.85;;;;;;;;;;5015827;28;20041;-65
2022/12/12 05:18:28;;;;;;;11.82;10.90;;;;;;;;;;5017504;28;20039;-64
2022/12/12 05:20:53;;;;;;;10.65;9.85;;;;;;;;;;5014273;28;20037;-65
2022/12/12 05:23:18;;;;;;;12.38;11.45;;;;;;;;;;5015610;28;20051;-64
2022/12/12 05:25:44;;;;;;;11.73;10.82;;;;;;;;;;5016743;28;20045;-65
2022/12/12 05:28:09;;;;;;;10.05;9.35;;;;;;;;;;5013447;28;20045;-64
2022/12/12 05:30:35;;;;;;;10.85;10.00;;;;;;;;;;5015294;28;20069;-65
2022/12/12 05:33:00;;;;;;;9.60;8.90;;;;;;;;;;5014017;28;20542;-64
2022/12/12 05:35:26;;;;;;;11.52;10.68;;;;;;;;;;5019275;28;20033;-65
2022/12/12 05:37:52;;;;;;;10.20;9.50;;;;;;;;;;5014248;28;20128;-65
2022/12/12 05:40:18;;;;;;;11.82;10.75;;;;;;;;;;5014471;28;20133;-64
2022/12/12 05:42:44;;;;;;;11.38;10.40;;;;;;;;;;5017105;28;20060;-64
2022/12/12 05:45:12;;;;;;;9.98;9.27;;;;;;;;;;5016328;28;20037;-64
2022/12/12 05:47:37;;;;;;;13.05;11.80;;;;;;;;;;5012671;28;20120;-65
2022/12/12 05:50:04;;;;;;;12.75;11.73;;;;;;;;;;5013149;28;20069;-64
2022/12/12 05:52:30;;;;;;;11.43;10.60;;;;;;;;;;5017521;28;20117;-65
2022/12/12 05:54:55;;;;;;;11.23;10.43;;;;;;;;;;5015212;28;20039;-66
2022/12/12 05:57:20;;;;;;;12.80;11.80;;;;;;;;;;5013708;28;20048;-66
2022/12/12 05:59:46;;;;;;;11.60;10.70;;;;;;;;;;5014075;28;20063;-65
2022/12/12 06:02:12;;;;;;;10.65;9.77;;;;;;;;;;5015540;28;20688;-64
2022/12/12 06:04:38;;;;;;;9.98;9.20;;;;;;;;;;5013595;28;20045;-64
2022/12/12 06:07:03;;;;;;;11.35;9.95;;;;;;;;;;5011844;28;20048;-63
2022/12/12 06:09:29;;;;;;;9.25;8.60;;;;;;;;;;5016067;28;20041;-64
2022/12/12 06:11:54;;;;;;;11.57;10.70;;;;;;;;;;5014383;28;21151;-65
2022/12/12 06:14:19;;;;;;;13.05;11.23;;;;;;;;;;5013142;28;20041;-63
2022/12/12 06:16:45;;;;;;;11.77;10.80;;;;;;;;;;5015321;28;20037;-63
2022/12/12 06:19:10;;;;;;;14.57;10.20;;;;;;;;;;5014318;28;20065;-64
2022/12/12 06:21:36;;;;;;;11.65;10.73;;;;;;;;;;5012485;28;20099;-65
2022/12/12 06:24:04;;;;;;;12.88;11.88;;;;;;;;;;5009878;28;20057;-66
2022/12/12 06:26:29;;;;;;;10.68;9.85;;;;;;;;;;5011050;28;20528;-64
2022/12/12 06:28:55;;;;;;;11.90;10.95;;;;;;;;;;5014370;28;20127;-64
2022/12/12 06:31:21;;;;;;;11.93;10.82;;;;;;;;;;5012914;28;20037;-64
2022/12/12 06:33:46;;;;;;;10.20;9.43;;;;;;;;;;5014486;28;20756;-65
2022/12/12 06:36:17;;;;;;;10.10;9.32;;;;;;;;;;5014203;28;20081;-64
2022/12/12 06:38:43;;;;;;;;;;;;;;;;;;5015338;28;20044;-65
2022/12/12 06:41:11;;;;;;;10.70;9.90;;;;;;;;;;5014332;28;19917;-64
2022/12/12 06:43:36;;;;;;;10.32;9.43;;;;;;;;;;5011767;28;20038;-63
2022/12/12 06:46:04;;;;;;;11.93;10.77;;;;;;;;;;5013895;28;20033;-64
2022/12/12 06:48:31;;;;;;;10.60;9.80;;;;;;;;;;5010747;28;20046;-64
2022/12/12 06:50:56;;;;;;;12.00;11.00;;;;;;;;;;5014277;28;20028;-64
2022/12/12 06:53:22;;;;;;;12.23;11.23;;;;;;;;;;5017478;28;20038;-65
2022/12/12 06:55:47;;;;;;;9.77;9.05;;;;;;;;;;5013473;28;20128;-65
2022/12/12 06:58:13;;;;;;;11.50;10.40;;;;;;;;;;5009689;28;20099;-64
2022/12/12 07:00:38;;;;;;;10.82;9.88;;;;;;;;;;5012644;28;20037;-66
2022/12/12 07:03:04;;;;;;;10.48;9.73;;;;;;;;;;5009918;28;20080;-65
2022/12/12 07:05:29;;;;;;;12.18;11.18;;;;;;;;;;5012237;28;20486;-64
2022/12/12 07:07:55;;;;;;;12.70;11.48;;;;;;;;;;5012130;28;20040;-64
2022/12/12 07:10:20;;;;;;;12.57;11.40;;;;;;;;;;5014812;28;20033;-63
2022/12/12 07:12:46;;;;;;;11.35;10.45;;;;;;;;;;5012699;28;20048;-63
2022/12/12 07:15:11;;;;;;;13.75;12.45;;;;;;;;;;5015398;28;20406;-62
2022/12/12 07:17:37;;;;;;;10.00;9.30;;;;;;;;;;5016217;28;20049;-65
2022/12/12 07:20:03;;;;;;;10.68;9.60;;;;;;;;;;5014337;28;20118;-66
2022/12/12 07:22:28;;;;;;;11.60;10.68;;;;;;;;;;5012192;28;20042;-65
2022/12/12 07:24:54;;;;;;;10.55;9.70;;;;;;;;;;5007945;28;20404;-64
2022/12/12 07:27:19;;;;;;;11.52;10.60;;;;;;;;;;5011831;28;20083;-65
2022/12/12 07:29:44;;;;;;;10.90;10.10;;;;;;;;;;5009791;28;20037;-65
2022/12/12 07:32:10;;;;;;;11.10;10.20;;;;;;;;;;5009373;28;20029;-65
2022/12/12 07:34:35;;;;;;;12.48;11.48;;;;;;;;;;5006666;28;20147;-65
2022/12/12 07:37:01;;;;;;;11.30;10.35;;;;;;;;;;5010497;28;20057;-64
2022/12/12 07:39:31;;;;;;;11.27;10.27;;;;;;;;;;5009611;28;20069;-65
2022/12/12 07:41:56;;;;;;;11.30;10.35;;;;;;;;;;5009602;28;20060;-65
2022/12/12 07:44:21;;;;;;;27.92;10.95;;;;;;;;;;5014207;28;20076;-64
2022/12/12 07:46:47;;;;;;;16.27;14.20;;;;;;;;;;5011569;28;20040;-65
2022/12/12 07:49:12;;;;;;;12.52;11.10;;;;;;;;;;5011798;28;20038;-64
2022/12/12 07:51:37;;;;;;;11.80;10.88;;;;;;;;;;5012480;28;20042;-63
2022/12/12 07:54:03;;;;;;;10.52;9.63;;;;;;;;;;5010370;28;20051;-64
2022/12/12 07:56:29;;;;;;;12.90;11.70;;;;;;;;;;5006503;28;20050;-63
2022/12/12 07:58:54;;;;;;;11.27;10.38;;;;;;;;;;5006916;28;20061;-64
2022/12/12 08:01:25;;;;;;;13.43;12.30;;;;;;;;;;5013338;28;20037;-64
2022/12/12 08:03:52;;;;;;;10.63;9.75;;;;;;;;;;5010950;28;20121;-64
2022/12/12 08:06:20;;;;;;;11.55;10.55;;;;;;;;;;5013733;28;20037;-64
2022/12/12 08:08:46;;;;;;;11.68;10.70;;;;;;;;;;5012941;28;20049;-64
2022/12/12 08:11:14;;;;;;;12.18;11.30;;;;;;;;;;5012707;28;20135;-64
2022/12/12 08:13:40;;;;;;;12.23;11.10;;;;;;;;;;5012946;28;20018;-63
2022/12/12 08:16:10;;;;;;;12.30;11.18;;;;;;;;;;5013979;28;20163;-63
2022/12/12 08:18:36;;;;;;;11.47;10.57;;;;;;;;;;5009091;28;20088;-63
2022/12/12 08:21:06;;;;;;;10.63;9.82;;;;;;;;;;5015523;28;20045;-63
2022/12/12 08:23:31;;;;;;;10.43;9.63;;;;;;;;;;5011518;28;20133;-64
2022/12/12 08:26:02;;;;;;;10.88;9.77;;;;;;;;;;5012130;28;20400;-64
2022/12/12 08:28:27;;;;;;;11.77;10.68;;;;;;;;;;5013119;28;20042;-64
2022/12/12 08:30:53;;;;;;;12.35;11.18;;;;;;;;;;5013446;28;20145;-63
2022/12/12 08:33:18;;;;;;;13.43;12.05;;;;;;;;;;5012571;28;20044;-64
2022/12/12 08:35:44;;;;;;;11.45;10.45;;;;;;;;;;5014014;28;20029;-64
2022/12/12 08:38:09;;;;;;;10.65;9.80;;;;;;;;;;5017814;28;20042;-65
2022/12/12 08:40:35;;;;;;;13.52;12.38;;;;;;;;;;5018793;28;20452;-66
2022/12/12 08:43:00;;;;;;;10.82;9.88;;;;;;;;;;5016179;28;20430;-64
2022/12/12 08:45:25;;;;;;;9.80;9.10;;;;;;;;;;5015483;28;20084;-64
2022/12/12 08:47:51;;;;;;;11.57;10.55;;;;;;;;;;5013861;28;20041;-65
2022/12/12 08:50:16;;;;;;;12.27;11.20;;;;;;;;;;5018082;28;20034;-65
2022/12/12 08:52:42;;;;;;;10.02;9.32;;;;;;;;;;5016005;28;20087;-64
2022/12/12 08:55:07;;;;;;;12.63;11.63;;;;;;;;;;5015585;28;20152;-64
2022/12/12 08:57:33;;;;;;;15.23;10.30;;;;;;;;;;5016941;28;20051;-64
2022/12/12 08:59:58;;;;;;;11.52;10.73;;;;;;;;;;5016214;28;20088;-64
2022/12/12 09:02:23;;;;;;;10.68;9.63;;;;;;;;;;5016912;28;20038;-65
2022/12/12 09:04:49;;;;;;;10.60;9.80;;;;;;;;;;5016629;28;20049;-65
2022/12/12 09:07:14;;;;;;;10.68;9.77;;;;;;;;;;5013404;28;20049;-64
2022/12/12 09:09:40;;;;;;;14.07;11.48;;;;;;;;;;5013739;28;20021;-65
2022/12/12 09:12:05;;;;;;;10.45;9.70;;;;;;;;;;5011737;28;20390;-64
2022/12/12 09:14:31;;;;;;;11.05;10.05;;;;;;;;;;5016270;28;20068;-64
2022/12/12 09:16:57;;;;;;;11.80;10.73;;;;;;;;;;5016454;28;20527;-64
2022/12/12 09:19:22;;;;;;;11.20;10.40;;;;;;;;;;5017178;28;20058;-65
2022/12/12 09:21:47;;;;;;;9.88;9.15;;;;;;;;;;5015202;28;20622;-64
2022/12/12 09:24:13;;;;;;;11.75;10.93;;;;;;;;;;5018573;28;20128;-65
2022/12/12 09:26:38;;;;;;;10.10;9.40;;;;;;;;;;5017099;28;20519;-64
2022/12/12 09:29:04;;;;;;;11.68;10.80;;;;;;;;;;5017000;28;20061;-64
2022/12/12 09:31:30;;;;;;;10.02;9.25;;;;;;;;;;5017303;28;20120;-65
2022/12/12 09:33:56;;;;;;;11.27;10.48;;;;;;;;;;5014530;28;20523;-65
2022/12/12 09:36:21;;;;;;;10.93;10.05;;;;;;;;;;5014691;28;20041;-63
2022/12/12 09:38:47;;;;;;;11.45;10.55;;;;;;;;;;5017219;28;20037;-61
2022/12/12 09:41:15;;;;;;;13.85;12.10;;;;;;;;;;5016774;28;20466;-61
2022/12/12 09:43:44;;;;;;;9.93;9.23;;;;;;;;;;5016706;28;20034;-62
2022/12/12 09:46:21;;;;;;;10.77;9.98;;;;;;;;;;5022624;28;21061;-62
2022/12/12 09:48:46;;;;;;;12.10;10.98;;;;;;;;;;5013849;28;20071;-61
2022/12/12 09:51:12;;;;;;;12.25;11.05;;;;;;;;;;5018658;28;20029;-62
2022/12/12 09:53:44;;;;;;;10.70;9.80;;;;;;;;;;5016935;28;20156;-60
2022/12/12 09:56:17;;;;;;;11.48;10.43;;;;;;;;;;5023007;28;20038;-61
2022/12/12 09:58:45;;;;;;;11.55;10.63;;;;;;;;;;5017322;28;20626;-60
2022/12/12 10:01:35;;;;;;;12.55;11.45;;;;;;;;;;5015882;28;21264;-60
2022/12/12 10:04:18;;;;;;;11.75;10.52;;;;;;;;;;5014367;28;20038;-61
2022/12/12 10:06:57;;;;;;;11.48;10.48;;;;;;;;;;5015453;28;20044;-60
2022/12/12 10:10:03;;;;;;;10.77;9.88;;;;;;;;;;5016159;28;20064;-61
2022/12/12 10:12:30;;;;;;;10.77;10.07;;;;;;;;;;5012772;28;20053;-61
2022/12/12 10:14:59;;;;;;;13.30;12.02;;;;;;;;;;5012564;28;20060;-61
2022/12/12 10:17:53;;;;;;;12.07;11.18;;;;;;;;;;5014900;28;20033;-61
2022/12/12 10:20:24;;;;;;;13.02;12.02;;;;;;;;;;5010633;28;20472;-60
2022/12/12 10:23:06;;;;;;;10.23;9.52;;;;;;;;;;5015296;28;20030;-60
2022/12/12 10:25:31;;;;;;;12.68;11.55;;;;;;;;;;5016014;28;20692;-59
2022/12/12 10:28:11;;;;;;;12.50;11.55;;;;;;;;;;5016265;28;20046;-60
2022/12/12 10:30:46;;;;;;;10.85;9.95;;;;;;;;;;5015649;28;20033;-60
2022/12/12 10:33:22;;;;;;;14.68;11.27;;;;;;;;;;5011929;28;20044;-59
2022/12/12 10:36:14;;;;;;;12.90;11.48;;;;;;;;;;5013987;28;20095;-59
2022/12/12 10:39:08;;;;;;;;;;;;;;;;;;5013841;28;20120;-59
2022/12/12 10:41:47;;;;;;;10.40;9.60;;;;;;;;;;5015694;28;19965;-59
2022/12/12 10:44:25;;;;;;;9.68;8.98;;;;;;;;;;5015200;28;20663;-59
2022/12/12 10:47:03;;;;;;;9.73;8.93;;;;;;;;;;5016623;28;20033;-59
2022/12/12 10:49:29;;;;;;;12.77;11.63;;;;;;;;;;5015613;28;20380;-59
2022/12/12 10:51:57;;;;;;;11.00;10.20;;;;;;;;;;5013802;28;20490;-59
2022/12/12 10:54:26;;;;;;;10.02;9.27;;;;;;;;;;5015373;28;20041;-59
2022/12/12 10:57:12;;;;;;;11.88;10.98;;;;;;;;;;5016297;28;20042;-59
2022/12/12 10:59:41;;;;;;;13.45;12.20;;;;;;;;;;5012332;28;20087;-59
2022/12/12 11:02:24;;;;;;;9.40;8.68;;;;;;;;;;5013041;28;20038;-62
2022/12/12 11:05:13;;;;;;;9.60;8.98;;;;;;;;;;5014859;28;20067;-60
2022/12/12 11:07:45;;;;;;;14.48;11.05;;;;;;;;;;5017715;28;20175;-60
2022/12/12 11:10:25;;;;;;;10.65;9.85;;;;;;;;;;5008754;28;20034;-60
2022/12/12 11:13:15;;;;;;;10.27;9.48;;;;;;;;;;5008059;28;20664;-59
2022/12/12 11:15:49;;;;;;;10.57;9.80;;;;;;;;;;5011425;28;20116;-59
2022/12/12 11:18:21;;;;;;;9.80;9.10;;;;;;;;;;5010465;28;20033;-60
2022/12/12 11:20:50;;;;;;;11.77;10.65;;;;;;;;;;5014369;28;20037;-60
2022/12/12 11:23:22;;;;;;;12.38;11.23;;;;;;;;;;5011545;28;20029;-58
2022/12/12 11:25:56;;;;;;;10.68;9.95;;;;;;;;;;5010316;28;20324;-60
2022/12/12 11:28:23;;;;;;;12.05;11.15;;;;;;;;;;5012001;28;20034;-61
2022/12/12 11:30:51;;;;;;;11.70;10.80;;;;;;;;;;5010796;28;20029;-60
2022/12/12 11:33:39;;;;;;;12.48;11.32;;;;;;;;;;5009812;28;20044;-60
2022/12/12 11:36:05;;;;;;;20.10;18.10;;;;;;;;;;5007011;28;20069;-61
2022/12/12 11:38:38;;;;;;;14.38;13.00;;;;;;;;;;5009341;28;20604;-61
2022/12/12 11:41:07;;;;;;;16.42;10.82;;;;;;;;;;5014140;28;20038;-61
2022/12/12 11:43:48;;;;;;;10.45;9.70;;;;;;;;;;5013229;28;20442;-61
2022/12/12 11:46:14;;;;;;;17.17;15.70;;;;;;;;;;5013694;28;20037;-61
2022/12/12 11:48:55;;;;;;;11.38;10.57;;;;;;;;;;5014863;28;20375;-61
2022/12/12 11:51:39;;;;;;;;;;;;;;;;;;5021389;28;20624;-60
2022/12/12 11:54:21;;;;;;;14.10;12.77;;;;;;;;;;5010353;28;19931;-59
2022/12/12 11:56:56;;;;;;;10.25;9.55;;;;;;;;;;5011285;28;20029;-59
2022/12/12 11:59:45;;;;;;;12.90;11.88;;;;;;;;;;5011218;28;20414;-60
2022/12/12 12:02:52;;;;;;;19.30;17.38;;;;;;;;;;5009771;28;20069;-60
2022/12/12 12:05:23;;;;;;;13.45;12.23;;;;;;;;;;5010964;28;20152;-53
2022/12/12 12:07:55;;;;;;;13.55;12.52;;;;;;;;;;5008783;28;20069;-53
2022/12/12 12:10:38;;;;;;;12.07;11.10;;;;;;;;;;5008592;28;20658;-53
2022/12/12 12:13:16;;;;;;;11.20;10.40;;;;;;;;;;5013320;28;20052;-54
2022/12/12 12:15:48;;;;;;;14.25;12.68;;;;;;;;;;5010028;28;20092;-55
2022/12/12 12:18:40;;;;;;;12.48;11.45;;;;;;;;;;5008490;28;20062;-55
2022/12/12 12:21:28;;;;;;;11.23;10.23;;;;;;;;;;5011130;28;20033;-56
2022/12/12 12:24:15;;;;;;;12.05;10.98;;;;;;;;;;5010359;28;20058;-59
2022/12/12 12:26:56;;;;;;;11.25;10.45;;;;;;;;;;5020143;28;20088;-54
2022/12/12 12:29:38;;;;;;;;;;;;;;;;;;5009889;28;20044;-53
2022/12/12 12:32:22;;;;;;;11.85;10.70;;;;;;;;;;5005019;28;20443;-56
2022/12/12 12:34:57;;;;;;;12.25;11.35;;;;;;;;;;5012807;28;20076;-57
2022/12/12 12:37:54;;;;;;;14.68;13.18;;;;;;;;;;5016212;28;20029;-56
2022/12/12 12:40:28;;;;;;;16.92;13.20;;;;;;;;;;5009519;28;20033;-56
2022/12/12 12:43:15;;;;;;;16.90;14.32;;;;;;;;;;5011011;28;20029;-55
2022/12/12 12:46:02;;;;;;;11.77;10.88;;;;;;;;;;5011860;28;20030;-55
2022/12/12 12:48:38;;;;;;;11.23;10.43;;;;;;;;;;5008919;28;20092;-56
2022/12/12 12:51:07;;;;;;;11.43;10.43;;;;;;;;;;5013132;28;20407;-56
2022/12/12 12:53:43;;;;;;;14.70;13.40;;;;;;;;;;5010147;28;20096;-55
2022/12/12 12:56:27;;;;;;;16.77;12.80;;;;;;;;;;5012063;28;20395;-53
2022/12/12 12:59:00;;;;;;;17.02;15.40;;;;;;;;;;5025247;28;20539;-54
2022/12/12 13:01:32;;;;;;;11.70;10.77;;;;;;;;;;5012861;28;20033;-54
2022/12/12 13:04:12;;;;;;;10.77;9.98;;;;;;;;;;5010776;28;20042;-54
2022/12/12 13:07:10;;;;;;;10.15;9.35;;;;;;;;;;5011242;28;20471;-54
2022/12/12 13:10:14;;;;;;;14.00;12.88;;;;;;;;;;5013562;28;20129;-54
2022/12/12 13:12:48;;;;;;;13.85;12.73;;;;;;;;;;5020151;28;20043;-53
2022/12/12 13:15:26;;;;;;;12.82;11.63;;;;;;;;;;5014472;28;20493;-55
2022/12/12 13:18:00;;;;;;;11.98;10.98;;;;;;;;;;5013414;28;20948;-54
2022/12/12 13:20:27;;;;;;;11.65;10.48;;;;;;;;;;5014313;28;20026;-53
2022/12/12 13:23:11;;;;;;;10.13;9.32;;;;;;;;;;5016401;28;20037;-54
2022/12/12 13:25:54;;;;;;;10.27;9.48;;;;;;;;;;5017443;28;20059;-54
2022/12/12 13:28:29;;;;;;;10.90;10.07;;;;;;;;;;5012676;28;20079;-56
2022/12/12 13:30:58;;;;;;;11.05;9.63;;;;;;;;;;5016526;28;20693;-54
2022/12/12 13:33:36;;;;;;;10.88;10.07;;;;;;;;;;5018289;28;20168;-52
2022/12/12 13:36:22;;;;;;;11.95;10.95;;;;;;;;;;5015355;28;20044;-54
2022/12/12 13:38:51;;;;;;;10.23;9.38;;;;;;;;;;5015266;28;20121;-53
2022/12/12 13:41:17;;;;;;;12.45;11.23;;;;;;;;;;5016957;28;20034;-54
2022/12/12 13:43:46;;;;;;;10.10;9.40;;;;;;;;;;5014983;28;20044;-51
2022/12/12 13:46:20;;;;;;;9.90;9.20;;;;;;;;;;5015651;28;20041;-53
2022/12/12 13:48:51;;;;;;;13.00;11.85;;;;;;;;;;5014067;28;20034;-53
2022/12/12 13:51:26;;;;;;;10.82;9.93;;;;;;;;;;5014240;28;20033;-53
2022/12/12 13:54:06;;;;;;;10.60;9.85;;;;;;;;;;5014925;28;20101;-53
2022/12/12 13:56:32;;;;;;;12.52;11.55;;;;;;;;;;5015203;28;20045;-53
2022/12/12 13:58:58;;;;;;;11.85;10.88;;;;;;;;;;5016332;28;20099;-53
2022/12/12 14:01:34;;;;;;;10.40;9.52;;;;;;;;;;5016402;28;20073;-55
2022/12/12 14:03:59;;;;;;;11.30;10.27;;;;;;;;;;5013137;28;20052;-53
2022/12/12 14:06:28;;;;;;;10.43;9.63;;;;;;;;;;5012046;28;20628;-53
2022/12/12 14:08:54;;;;;;;10.10;9.13;;;;;;;;;;5015793;28;20037;-52
2022/12/12 14:11:27;;;;;;;9.15;8.45;;;;;;;;;;5010898;28;20042;-53
2022/12/12 14:14:04;;;;;;;9.38;8.77;;;;;;;;;;5012721;28;20038;-54
2022/12/12 14:16:29;;;;;;;11.60;10.55;;;;;;;;;;5011542;28;20593;-53
2022/12/12 14:19:03;;;;;;;10.35;9.60;;;;;;;;;;5014049;28;20034;-55
2022/12/12 14:21:43;;;;;;;9.98;9.18;;;;;;;;;;5010379;28;20130;-51
2022/12/12 14:24:34;;;;;;;12.20;11.23;;;;;;;;;;5014979;28;20042;-54
2022/12/12 14:27:04;;;;;;;10.85;10.00;;;;;;;;;;5011750;28;20046;-54
2022/12/12 14:29:37;;;;;;;11.13;10.23;;;;;;;;;;5013579;28;20071;-53
2022/12/12 14:32:11;;;;;;;10.70;9.90;;;;;;;;;;5013407;28;20125;-55
2022/12/12 14:34:53;;;;;;;11.10;10.30;;;;;;;;;;5012879;28;20065;-53
2022/12/12 14:37:48;;;;;;;10.63;9.82;;;;;;;;;;5014033;28;20470;-54
2022/12/12 14:40:22;;;;;;;10.40;9.48;;;;;;;;;;5012305;28;20438;-54
2022/12/12 14:43:00;;;;;;;9.43;8.82;;;;;;;;;;5011892;28;20046;-54
2022/12/12 14:45:40;;;;;;;9.88;9.18;;;;;;;;;;5013901;28;20703;-54
2022/12/12 14:48:20;;;;;;;10.83;10.03;;;;;;;;;;5012034;28;20084;-51
2022/12/12 14:50:50;;;;;;;10.75;9.95;;;;;;;;;;5013191;28;20047;-54
2022/12/12 14:53:19;;;;;;;11.07;10.23;;;;;;;;;;5012693;28;20526;-53
2022/12/12 14:55:51;;;;;;;11.30;10.38;;;;;;;;;;5016412;28;20478;-51
2022/12/12 14:58:19;;;;;;;10.65;9.85;;;;;;;;;;5013238;28;20037;-53
2022/12/12 15:00:53;;;;;;;11.43;10.63;;;;;;;;;;5005687;28;20067;-54
2022/12/12 15:03:31;;;;;;;12.77;11.57;;;;;;;;;;5012755;28;20065;-52